SKBQ - SKCG

Guest
Details From SKBQ - Ernesto Cortissoz
To SKCG - RAFAEL NUNEZ
Flight Number -
Tags generated
Created
Modified
Stats Distance 51 nm / 95 km
Max Altitude 2,600 ft / 792 m
Waypoints 3
Social Downloads 1
Likes 0
Share VATSIM

Download

Looking for another format? Having issues loading an existing format? Contact us
Advertisement - Login to hide

Notes

Basic altitude profile: - Ascent Rate: 1000ft/min - Ascent Speed: 100kts - Cruise Altitude: 6000ft - Cruise Speed: 120kts - Descent Rate: 800ft/min - Descent Speed: 120kts Options: - Use NATs: yes - Use PACOTS: yes - Use low airways: yes - Use high airways: no

Route

SKBQ BAQ SKCG

ID Type Via Altitude Latitude Longitude Leg Dist Tot Dist Heading (true) Name
O SKBQ APT - 0 ft / 0 m 10.88959˚ -74.78082˚ - 0 nm - Ernesto Cortissoz
BAQ VOR - 2,600 ft / 792 m 10.79667˚ -74.86028˚ 7 nm 7 nm 220° / 220° BARRANQUILLA VOR-DME
O SKCG APT - 0 ft / 0 m 10.44238˚ -75.51296˚ 44 nm 51 nm 241° / 241° RAFAEL NUNEZ

Altitude Profile

SKBQ

Details ICAO SKBQ (BAQ)
Name Ernesto Cortissoz
Region Colombia
Timezone America/Bogota (UTC-5.0)
Stats Elevation 98 ft / 30 m (AMSL)
Location 10.889589° -74.780820°
Runways 1
Magnetic Variation 7.597° W

METAR

SKBQ 040500Z 24003KT 9999 SCT015CB 25/25 A2986 RMK CB LTNG/NE

Decode

TAF

TAF SKBQ 032300Z 0400/0424 24006KT 9999 SCT017 SCT200 TEMPO 0400/0402 8000 DZ SCT013TCU TEMPO 0409/0412 4000 BR DZ SCT012 TEMPO 0420/0424 8000 VCSH DZRA SCT012CB TX33/0419Z TN24/0411Z

Decode

Departure Runways

ID Width Length Bearing (true) Bearing (mag) Surface Threshold Offset Overrun Length
05 148 ft / 45 m 9,863 ft / 3,006 m 40.09° 47.69° Concrete 0 ft / 0 m 105 ft / 32 m
23 148 ft / 45 m 9,863 ft / 3,006 m 220.09° 227.69° Concrete 0 ft / 0 m 0 ft / 0 m

SKCG

Details ICAO SKCG (CTG)
Name RAFAEL NUNEZ
Region Colombia
Timezone America/Bogota (UTC-5.0)
Stats Elevation 4 ft / 1 m (AMSL)
Location 10.442379° -75.512961°
Runways 1
Magnetic Variation 7.071° W

METAR

SKCG 040600Z 29003KT 9999 RA BKN015 SCT070 28/27 A2983 METAR SKBQ 040600Z 25003KT 9999 FEW015 25/25 A2984

Decode

TAF

TAF SKCG 032300Z 0400/0424 VRB02KT 9999 SCT015 SCT080 TEMPO 0400/0402 8000 DZ SCT013CB BKN100 TEMPO 0410/0412 8000 SCT012 PROB30 TEMPO 0415/0420 8000 DZ VCSH SCT018 TX32/0418Z TN25/0411Z

Decode

Destination Runways

ID Width Length Bearing (true) Bearing (mag) Surface Threshold Offset Overrun Length
01 148 ft / 45 m 8,584 ft / 2,616 m 2.31° 9.38° Asphalt 0 ft / 0 m 180 ft / 55 m
19 148 ft / 45 m 8,584 ft / 2,616 m 182.31° 189.38° Asphalt 190 ft / 58 m 0 ft / 0 m

Popular Alternatives